Time;durP1;ratioP1;P1;durP2;ratioP2;P2;SDS_P1;SDS_P2;PMS_P1;PMS_P2;Temp;Humidity;BMP_temperature;BMP_pressure;BME280_temperature;BME280_humidity;BME280_pressure;Samples;Min_cycle;Max_cycle;Signal;HPM_P1;HPM_P2
2022/11/14 00:00:38;;;;;;;;;;;;;;;3.73;100.00;96418.25;5063164;28;19944;-71
2022/11/14 00:03:05;;;;;;;;;;;;;;;3.75;100.00;96418.88;5056828;28;20425;-72
2022/11/14 00:05:31;;;;;;;;;;;;;;;3.78;100.00;96418.56;5066486;28;19950;-72
2022/11/14 00:07:57;;;;;;;;;;;;;;;3.79;100.00;96412.38;5068200;28;19958;-72
2022/11/14 00:10:23;;;;;;;;;;;;;;;3.78;100.00;96409.94;5059291;28;20384;-71
2022/11/14 00:12:49;;;;;;;;;;;;;;;3.73;100.00;96415.66;5064402;28;20415;-71
2022/11/14 00:15:15;;;;;;;;;;;;;;;3.71;100.00;96419.41;5066370;28;19962;-72
2022/11/14 00:17:41;;;;;;;;;;;;;;;3.65;100.00;96426.94;5062421;28;20037;-71
2022/11/14 00:20:08;;;;;;;;;;;;;;;3.62;100.00;96432.44;5063356;28;19949;-71
2022/11/14 00:22:34;;;;;;;;;;;;;;;3.61;100.00;96428.25;5058799;28;20411;-71
2022/11/14 00:25:00;;;;;;;;;;;;;;;3.61;100.00;96433.44;5065216;28;20021;-72
2022/11/14 00:27:26;;;;;;;;;;;;;;;3.65;100.00;96429.53;5068173;28;19952;-72
2022/11/14 00:29:51;;;;;;;;;;;;;;;3.68;100.00;96423.19;5061946;28;19994;-72
2022/11/14 00:32:18;;;;;;;;;;;;;;;3.72;100.00;96431.44;5064654;28;19954;-72
2022/11/14 00:34:45;;;;;;;;;;;;;;;3.72;100.00;96416.66;5071264;28;19972;-72
2022/11/14 00:37:10;;;;;;;;;;;;;;;3.80;100.00;96426.97;5068856;28;20306;-72
2022/11/14 00:39:36;;;;;;;;;;;;;;;3.85;100.00;96424.63;5064938;28;20009;-71
2022/11/14 00:42:02;;;;;;;;;;;;;;;3.86;100.00;96405.50;5069091;28;20432;-71
2022/11/14 00:44:28;;;;;;;;;;;;;;;3.87;100.00;96416.69;5070200;28;19954;-72
2022/11/14 00:46:54;;;;;;;;;;;;;;;3.90;100.00;96420.72;5064964;28;20015;-71
2022/11/14 00:49:20;;;;;;;;;;;;;;;3.92;100.00;96418.75;5062540;28;19999;-72
2022/11/14 00:51:46;;;;;;;;;;;;;;;3.97;100.00;96409.47;5070816;28;19999;-72
2022/11/14 00:54:12;;;;;;;;;;;;;;;3.99;100.00;96417.06;5067981;28;19952;-71
2022/11/14 00:56:37;;;;;;;;;;;;;;;4.01;100.00;96409.91;5066931;28;20459;-71
2022/11/14 00:59:03;;;;;;;;;;;;;;;3.98;100.00;96418.84;5064071;28;20012;-72
2022/11/14 01:01:29;;;;;;;;;;;;;;;3.95;100.00;96424.41;5067149;28;20326;-72
2022/11/14 01:03:55;;;;;;;;;;;;;;;3.92;100.00;96421.34;5065613;28;19956;-72
2022/11/14 01:06:21;;;;;;;;;;;;;;;3.86;100.00;96413.31;5066835;28;19955;-72
2022/11/14 01:08:49;;;;;;;;;;;;;;;3.84;100.00;96398.88;5063118;28;19964;-72
2022/11/14 01:11:16;;;;;;;;;;;;;;;3.88;100.00;96407.13;5065953;28;19958;-71
2022/11/14 01:13:42;;;;;;;;;;;;;;;3.91;100.00;96404.97;5071108;28;20314;-72
2022/11/14 01:16:08;;;;;;;;;;;;;;;3.92;100.00;96400.59;5068550;28;19966;-71
2022/11/14 01:18:35;;;;;;;;;;;;;;;3.93;100.00;96399.63;5064595;28;19954;-72
2022/11/14 01:21:03;;;;;;;;;;;;;;;3.96;100.00;96388.88;5064792;28;19973;-72
2022/11/14 01:23:29;;;;;;;;;;;;;;;4.00;100.00;96380.56;5068557;28;20414;-71
2022/11/14 01:25:59;;;;;;;;;;;;;;;4.04;100.00;96391.41;5065323;28;19998;-72
2022/11/14 01:28:25;;;;;;;;;;;;;;;4.06;100.00;96386.84;5073073;28;19952;-72
2022/11/14 01:30:51;;;;;;;;;;;;;;;4.02;100.00;96381.19;5062606;28;20473;-73
2022/11/14 01:33:17;;;;;;;;;;;;;;;4.04;100.00;96368.84;5066217;28;19954;-73
2022/11/14 01:35:43;;;;;;;;;;;;;;;4.03;100.00;96367.25;5071560;28;20012;-74
2022/11/14 01:38:13;;;;;;;;;;;;;;;4.02;100.00;96363.03;5063768;28;19962;-72
2022/11/14 01:40:43;;;;;;;;;;;;;;;4.05;100.00;96354.06;5063043;28;20506;-72
2022/11/14 01:43:15;;;;;;;;;;;;;;;4.06;100.00;96355.69;5067766;28;19960;-72
2022/11/14 01:45:50;;;;;;;;;;;;;;;4.05;100.00;96352.31;5067958;28;19950;-72
2022/11/14 01:48:35;;;;;;;;;;;;;;;4.02;100.00;96355.25;5069860;28;19955;-72
2022/11/14 01:51:23;;;;;;;;;;;;;;;4.02;100.00;96355.25;5066099;28;19953;-72
2022/11/14 01:53:50;;;;;;;;;;;;;;;4.00;100.00;96353.81;5065042;28;19974;-72
2022/11/14 01:56:18;;;;;;;;;;;;;;;3.96;100.00;96352.56;5062467;28;20431;-72
2022/11/14 01:58:47;;;;;;;;;;;;;;;3.93;100.00;96350.34;5066039;28;19954;-72
2022/11/14 02:01:13;;;;;;;;;;;;;;;3.92;100.00;96346.09;5066376;28;19961;-72
2022/11/14 02:03:41;;;;;;;;;;;;;;;3.89;100.00;96346.47;5065041;28;19955;-72
2022/11/14 02:06:08;;;;;;;;;;;;;;;3.89;100.00;96354.25;5063748;28;19962;-72
2022/11/14 02:08:35;;;;;;;;;;;;;;;3.90;100.00;96343.69;5049570;28;19982;-73
2022/11/14 02:11:01;;;;;;;;;;;;;;;3.93;100.00;96343.34;5067583;28;20431;-72
2022/11/14 02:13:27;;;;;;;;;;;;;;;3.95;100.00;96346.56;5064930;28;19993;-72
2022/11/14 02:15:53;;;;;;;;;;;;;;;3.94;100.00;96339.75;5048262;28;19965;-72
2022/11/14 02:18:19;;;;;;;;;;;;;;;3.88;100.00;96337.88;5064669;28;19954;-72
2022/11/14 02:20:45;;;;;;;;;;;;;;;3.80;100.00;96332.75;5062502;28;20011;-73
2022/11/14 02:23:11;;;;;;;;;;;;;;;3.72;100.00;96338.84;5071049;28;20042;-72
2022/11/14 02:25:37;;;;;;;;;;;;;;;3.69;100.00;96344.38;5065177;28;19953;-72
2022/11/14 02:28:06;;;;;;;;;;;;;;;3.66;100.00;96348.13;5067195;28;19959;-72
2022/11/14 02:30:32;;;;;;;;;;;;;;;3.62;100.00;96344.28;5060336;28;19972;-72
2022/11/14 02:32:58;;;;;;;;;;;;;;;3.60;100.00;96348.03;5070614;28;19954;-72
2022/11/14 02:35:24;;;;;;;;;;;;;;;3.62;100.00;96346.88;5048921;28;20044;-72
2022/11/14 02:37:50;;;;;;;;;;;;;;;3.63;100.00;96351.09;5064823;28;19947;-72
2022/11/14 02:40:16;;;;;;;;;;;;;;;3.62;100.00;96352.06;5065987;28;19964;-72
2022/11/14 02:42:42;;;;;;;;;;;;;;;3.62;100.00;96346.09;5064808;28;19951;-72
2022/11/14 02:45:08;;;;;;;;;;;;;;;3.62;100.00;96346.88;5069692;28;19957;-72
2022/11/14 02:47:34;;;;;;;;;;;;;;;3.68;100.00;96350.56;5059744;28;19947;-72
2022/11/14 02:50:00;;;;;;;;;;;;;;;3.69;100.00;96348.78;5064054;28;19957;-72
2022/11/14 02:52:26;;;;;;;;;;;;;;;3.66;100.00;96347.34;5061535;28;19998;-72
2022/11/14 02:54:52;;;;;;;;;;;;;;;3.61;100.00;96354.81;5069668;28;20451;-72
2022/11/14 02:57:18;;;;;;;;;;;;;;;3.57;100.00;96358.75;5059724;28;19956;-72
2022/11/14 02:59:43;;;;;;;;;;;;;;;3.52;100.00;96363.66;5059828;28;20001;-72
2022/11/14 03:02:09;;;;;;;;;;;;;;;3.45;100.00;96364.38;5067124;28;19998;-72
2022/11/14 03:04:35;;;;;;;;;;;;;;;3.43;100.00;96366.31;5070460;28;19956;-72
2022/11/14 03:07:01;;;;;;;;;;;;;;;3.45;100.00;96368.75;5062069;28;20302;-72
2022/11/14 03:09:27;;;;;;;;;;;;;;;3.48;100.00;96372.78;5057528;28;20352;-72
2022/11/14 03:11:53;;;;;;;;;;;;;;;3.49;100.00;96366.63;5069562;28;20072;-72
2022/11/14 03:14:19;;;;;;;;;;;;;;;3.54;100.00;96366.91;5066979;28;19954;-72
2022/11/14 03:16:44;;;;;;;;;;;;;;;3.53;100.00;96355.72;5065047;28;19969;-74
2022/11/14 03:19:10;;;;;;;;;;;;;;;3.50;100.00;96344.88;5062508;28;20384;-72
2022/11/14 03:21:36;;;;;;;;;;;;;;;3.48;100.00;96346.84;5062105;28;19972;-72
2022/11/14 03:24:02;;;;;;;;;;;;;;;3.50;100.00;96340.50;5063514;28;20402;-72
2022/11/14 03:26:28;;;;;;;;;;;;;;;3.51;100.00;96326.56;5068801;28;19951;-72
2022/11/14 03:28:54;;;;;;;;;;;;;;;3.54;100.00;96326.22;5066178;28;19957;-72
2022/11/14 03:31:20;;;;;;;;;;;;;;;3.58;100.00;96326.66;5059695;28;19994;-72
2022/11/14 03:33:45;;;;;;;;;;;;;;;3.64;100.00;96320.78;5060875;28;20049;-72
2022/11/14 03:36:11;;;;;;;;;;;;;;;3.68;100.00;96326.44;5045947;28;19980;-72
2022/11/14 03:38:37;;;;;;;;;;;;;;;3.60;100.00;96337.66;5065206;28;20003;-72
2022/11/14 03:41:03;;;;;;;;;;;;;;;3.52;100.00;96337.75;5068256;28;20001;-72
2022/11/14 03:43:30;;;;;;;;;;;;;;;3.49;100.00;96341.50;5058835;28;19949;-72
2022/11/14 03:46:00;;;;;;;;;;;;;;;3.49;100.00;96333.72;5063411;28;19951;-72
2022/11/14 03:48:26;;;;;;;;;;;;;;;3.40;100.00;96335.59;5065825;28;19959;-72
2022/11/14 03:50:52;;;;;;;;;;;;;;;3.35;100.00;96318.94;5066817;28;20340;-72
2022/11/14 03:53:18;;;;;;;;;;;;;;;3.38;100.00;96318.56;5062508;28;19955;-72
2022/11/14 03:55:44;;;;;;;;;;;;;;;3.42;100.00;96328.44;5057147;28;20044;-72
2022/11/14 03:58:10;;;;;;;;;;;;;;;3.47;100.00;96327.09;5067097;28;19955;-72
2022/11/14 04:00:35;;;;;;;;;;;;;;;3.47;100.00;96340.06;5067044;28;19952;-72
2022/11/14 04:03:01;;;;;;;;;;;;;;;3.44;100.00;96339.44;5061568;28;20077;-72
2022/11/14 04:05:27;;;;;;;;;;;;;;;3.40;100.00;96345.94;5061674;28;20000;-72
2022/11/14 04:07:53;;;;;;;;;;;;;;;3.40;100.00;96350.31;5063608;28;20004;-72
2022/11/14 04:10:21;;;;;;;;;;;;;;;3.53;100.00;96350.53;5061020;28;20440;-72
2022/11/14 04:12:47;;;;;;;;;;;;;;;3.60;100.00;96345.44;5046838;28;19981;-72
2022/11/14 04:15:13;;;;;;;;;;;;;;;3.57;100.00;96338.84;5062475;28;19976;-72
2022/11/14 04:17:39;;;;;;;;;;;;;;;3.48;100.00;96336.47;5060014;28;19951;-71
2022/11/14 04:20:05;;;;;;;;;;;;;;;3.43;100.00;96337.81;5061712;28;20005;-72
2022/11/14 04:22:31;;;;;;;;;;;;;;;3.39;100.00;96325.38;5066435;28;19960;-72
2022/11/14 04:24:57;;;;;;;;;;;;;;;3.37;100.00;96312.59;5069121;28;20361;-73
2022/11/14 04:27:23;;;;;;;;;;;;;;;3.41;100.00;96315.66;5060826;28;20015;-72
2022/11/14 04:29:49;;;;;;;;;;;;;;;3.44;100.00;96307.50;5057156;28;20004;-72
2022/11/14 04:32:15;;;;;;;;;;;;;;;3.43;100.00;96305.91;5065035;28;20040;-72
2022/11/14 04:34:40;;;;;;;;;;;;;;;3.39;100.00;96317.59;5065860;28;19953;-72
2022/11/14 04:37:06;;;;;;;;;;;;;;;3.38;100.00;96314.22;5061933;28;20329;-72
2022/11/14 04:39:32;;;;;;;;;;;;;;;3.39;100.00;96309.81;5061845;28;19958;-72
2022/11/14 04:41:58;;;;;;;;;;;;;;;3.39;100.00;96304.66;5063869;28;19973;-72
2022/11/14 04:44:24;;;;;;;;;;;;;;;3.36;100.00;96295.44;5061823;28;20024;-72
2022/11/14 04:46:50;;;;;;;;;;;;;;;3.34;100.00;96299.16;5064875;28;19955;-72
2022/11/14 04:49:16;;;;;;;;;;;;;;;3.27;100.00;96296.47;5058197;28;19963;-72
2022/11/14 04:51:42;;;;;;;;;;;;;;;3.29;100.00;96302.28;5066671;28;20011;-72
2022/11/14 04:54:07;;;;;;;;;;;;;;;3.33;100.00;96303.56;5044824;28;20005;-72
2022/11/14 04:56:33;;;;;;;;;;;;;;;3.36;100.00;96311.00;5056486;28;19967;-72
2022/11/14 04:58:59;;;;;;;;;;;;;;;3.32;100.00;96307.13;5064017;28;19946;-72
2022/11/14 05:01:25;;;;;;;;;;;;;;;3.33;100.00;96303.56;5062639;28;19959;-72
2022/11/14 05:03:51;;;;;;;;;;;;;;;3.35;100.00;96300.78;5065204;28;20463;-71
2022/11/14 05:06:17;;;;;;;;;;;;;;;3.33;100.00;96306.16;5062774;28;20307;-72
2022/11/14 05:08:43;;;;;;;;;;;;;;;3.29;100.00;96306.69;5059300;28;19970;-71
2022/11/14 05:11:15;;;;;;;;;;;;;;;3.25;100.00;96299.25;5062720;28;20049;-72
2022/11/14 05:13:42;;;;;;;;;;;;;;;3.27;100.00;96298.28;5061297;28;20398;-72
2022/11/14 05:16:07;;;;;;;;;;;;;;;3.29;100.00;96291.13;5069591;28;19968;-72
2022/11/14 05:18:33;;;;;;;;;;;;;;;3.32;100.00;96286.41;5066650;28;20391;-71
2022/11/14 05:20:59;;;;;;;;;;;;;;;3.41;100.00;96279.34;5063674;28;19955;-71
2022/11/14 05:23:26;;;;;;;;;;;;;;;3.49;100.00;96275.88;5072622;28;19957;-72
2022/11/14 05:25:58;;;;;;;;;;;;;;;3.56;100.00;96276.78;5062762;28;19948;-71
2022/11/14 05:28:24;;;;;;;;;;;;;;;3.62;100.00;96260.50;5064915;28;19956;-72
2022/11/14 05:30:50;;;;;;;;;;;;;;;3.64;100.00;96267.13;5071915;28;20341;-72
2022/11/14 05:33:16;;;;;;;;;;;;;;;3.68;100.00;96264.97;5066912;28;19957;-72
2022/11/14 05:35:42;;;;;;;;;;;;;;;3.69;100.00;96265.78;5046433;28;19984;-72
2022/11/14 05:38:08;;;;;;;;;;;;;;;3.63;100.00;96265.53;5063994;28;20020;-71
2022/11/14 05:40:33;;;;;;;;;;;;;;;3.63;100.00;96278.50;5066066;28;19956;-72
2022/11/14 05:42:59;;;;;;;;;;;;;;;3.97;100.00;96269.34;5071373;28;20009;-72
2022/11/14 05:45:25;;;;;;;;;;;;;;;4.58;100.00;96265.66;5063248;28;19954;-72
2022/11/14 05:47:53;;;;;;;;;;;;;;;4.67;100.00;96265.34;5063760;28;19954;-72
2022/11/14 05:50:18;;;;;;;;;;;;;;;4.57;100.00;96264.03;5068973;28;19948;-72
2022/11/14 05:52:44;;;;;;;;;;;;;;;4.48;100.00;96271.13;5067445;28;19963;-72
2022/11/14 05:55:10;;;;;;;;;;;;;;;4.40;100.00;96276.44;5067009;28;19953;-73
2022/11/14 05:57:36;;;;;;;;;;;;;;;4.25;100.00;96277.28;5064177;28;19953;-71
2022/11/14 06:00:03;;;;;;;;;;;;;;;4.17;100.00;96276.56;5065064;28;19957;-72
2022/11/14 06:02:30;;;;;;;;;;;;;;;4.12;100.00;96287.50;5072315;28;19978;-72
2022/11/14 06:04:56;;;;;;;;;;;;;;;4.06;100.00;96290.81;5062071;28;19949;-71
2022/11/14 06:07:21;;;;;;;;;;;;;;;4.05;100.00;96294.38;5063168;28;20480;-72
2022/11/14 06:09:47;;;;;;;;;;;;;;;4.01;100.00;96290.53;5065584;28;20390;-71
2022/11/14 06:12:13;;;;;;;;;;;;;;;4.00;100.00;96302.72;5069539;28;19974;-72
2022/11/14 06:14:39;;;;;;;;;;;;;;;3.97;100.00;96297.06;5068195;28;19953;-73
2022/11/14 06:17:05;;;;;;;;;;;;;;;3.94;100.00;96300.03;5062670;28;19966;-72
2022/11/14 06:19:31;;;;;;;;;;;;;;;3.90;100.00;96304.78;5064852;28;20397;-72
2022/11/14 06:21:57;;;;;;;;;;;;;;;3.88;100.00;96300.75;5072284;28;20047;-72
2022/11/14 06:24:22;;;;;;;;;;;;;;;3.83;100.00;96304.69;5062854;28;19960;-72
2022/11/14 06:26:48;;;;;;;;;;;;;;;3.74;100.00;96303.16;5065056;28;19956;-72
2022/11/14 06:29:14;;;;;;;;;;;;;;;3.66;100.00;96309.25;5064069;28;20003;-72
2022/11/14 06:31:40;;;;;;;;;;;;;;;3.61;100.00;96310.75;5064081;28;19960;-72
2022/11/14 06:34:06;;;;;;;;;;;;;;;3.58;100.00;96308.53;5067221;28;20000;-72
2022/11/14 06:36:32;;;;;;;;;;;;;;;3.57;100.00;96304.31;5071066;28;20479;-72
2022/11/14 06:38:57;;;;;;;;;;;;;;;3.55;100.00;96303.66;5065825;28;20432;-72
2022/11/14 06:41:23;;;;;;;;;;;;;;;3.54;100.00;96304.66;5058042;28;19955;-72
2022/11/14 06:43:51;;;;;;;;;;;;;;;3.54;100.00;96299.47;5061638;28;19954;-72
2022/11/14 06:46:18;;;;;;;;;;;;;;;3.51;100.00;96292.88;5069621;28;19951;-72
2022/11/14 06:48:44;;;;;;;;;;;;;;;3.49;100.00;96297.44;5063022;28;19955;-72
2022/11/14 06:51:11;;;;;;;;;;;;;;;3.47;100.00;96299.38;5064057;28;19948;-72
2022/11/14 06:53:37;;;;;;;;;;;;;;;3.47;100.00;96301.97;5050814;28;20333;-72
2022/11/14 06:56:08;;;;;;;;;;;;;;;3.48;100.00;96298.38;5062327;28;19975;-72
2022/11/14 06:58:35;;;;;;;;;;;;;;;3.49;100.00;96305.22;5065136;28;19957;-72
2022/11/14 07:01:02;;;;;;;;;;;;;;;3.51;100.00;96297.22;5061935;28;19950;-72
2022/11/14 07:03:28;;;;;;;;;;;;;;;3.52;100.00;96288.47;5063606;28;19958;-71
2022/11/14 07:05:56;;;;;;;;;;;;;;;3.54;100.00;96299.47;5066094;28;20018;-72
2022/11/14 07:08:22;;;;;;;;;;;;;;;3.53;100.00;96293.50;5062962;28;19984;-71
2022/11/14 07:10:48;;;;;;;;;;;;;;;3.56;100.00;96300.13;5058967;28;20007;-72
2022/11/14 07:13:14;;;;;;;;;;;;;;;3.58;100.00;96305.94;5064931;28;20075;-72
2022/11/14 07:15:48;;;;;;;;;;;;;;;3.59;100.00;96291.97;5064224;28;19953;-72
2022/11/14 07:18:13;;;;;;;;;;;;;;;3.61;100.00;96300.38;5049842;28;19954;-72
2022/11/14 07:20:39;;;;;;;;;;;;;;;3.62;100.00;96300.19;5063504;28;19948;-72
2022/11/14 07:23:05;;;;;;;;;;;;;;;3.62;100.00;96305.38;5060203;28;20371;-72
2022/11/14 07:25:31;;;;;;;;;;;;;;;3.64;100.00;96305.22;5069732;28;20410;-71
2022/11/14 07:27:57;;;;;;;;;;;;;;;3.63;100.00;96308.78;5060639;28;20430;-71
2022/11/14 07:30:23;;;;;;;;;;;;;;;3.62;100.00;96300.19;5060515;28;19960;-71
2022/11/14 07:32:55;;;;;;;;;;;;;;;3.63;100.00;96301.84;5064943;28;20311;-71
2022/11/14 07:35:21;;;;;;;;;;;;;;;3.65;100.00;96301.63;5067550;28;19952;-72
2022/11/14 07:37:47;;;;;;;;;;;;;;;3.65;100.00;96309.41;5056492;28;20413;-71
2022/11/14 07:40:13;;;;;;;;;;;;;;;3.65;100.00;96305.06;5067432;28;20535;-71
2022/11/14 07:42:39;;;;;;;;;;;;;;;3.64;100.00;96318.19;5064334;28;20417;-71
2022/11/14 07:45:05;;;;;;;;;;;;;;;3.64;100.00;96318.97;5068647;28;19954;-72
2022/11/14 07:47:31;;;;;;;;;;;;;;;3.64;100.00;96323.38;5063539;28;19959;-71
2022/11/14 07:49:57;;;;;;;;;;;;;;;3.67;100.00;96333.38;5058515;28;19968;-72
2022/11/14 07:52:23;;;;;;;;;;;;;;;3.70;100.00;96346.00;5068141;28;19966;-71
2022/11/14 07:54:49;;;;;;;;;;;;;;;3.71;100.00;96339.81;5063903;28;20007;-72
2022/11/14 07:57:14;;;;;;;;;;;;;;;3.74;100.00;96349.03;5059287;28;20023;-71
2022/11/14 07:59:40;;;;;;;;;;;;;;;3.75;100.00;96346.25;5060962;28;19960;-72
2022/11/14 08:02:10;;;;;;;;;;;;;;;3.80;100.00;96358.69;5060539;28;19953;-71
2022/11/14 08:04:36;;;;;;;;;;;;;;;3.84;100.00;96358.19;5064590;28;19955;-71
2022/11/14 08:07:02;;;;;;;;;;;;;;;3.86;100.00;96348.44;5068392;28;19980;-72
2022/11/14 08:09:28;;;;;;;;;;;;;;;3.89;100.00;96355.06;5059330;28;20000;-71
2022/11/14 08:11:54;;;;;;;;;;;;;;;3.93;100.00;96345.94;5061926;28;19974;-71
2022/11/14 08:14:19;;;;;;;;;;;;;;;3.97;100.00;96348.97;5067255;28;20046;-71
2022/11/14 08:16:45;;;;;;;;;;;;;;;4.00;100.00;96339.03;5061459;28;19970;-71
2022/11/14 08:19:11;;;;;;;;;;;;;;;4.06;100.00;96345.31;5045666;28;19960;-72
2022/11/14 08:21:37;;;;;;;;;;;;;;;4.09;100.00;96341.56;5064355;28;20471;-72
2022/11/14 08:24:03;;;;;;;;;;;;;;;4.14;100.00;96341.84;5061667;28;19968;-72
2022/11/14 08:26:29;;;;;;;;;;;;;;;4.20;100.00;96343.69;5048638;28;20327;-72
2022/11/14 08:28:55;;;;;;;;;;;;;;;4.25;100.00;96343.97;5067520;28;19959;-73
2022/11/14 08:31:21;;;;;;;;;;;;;;;4.30;100.00;96346.00;5061387;28;19956;-72
2022/11/14 08:33:49;;;;;;;;;;;;;;;4.35;100.00;96343.69;5062115;28;19959;-72
2022/11/14 08:36:15;;;;;;;;;;;;;;;4.39;100.00;96344.91;5061562;28;20311;-73
2022/11/14 08:38:40;;;;;;;;;;;;;;;4.44;100.00;96345.19;5064811;28;20004;-73
2022/11/14 08:41:06;;;;;;;;;;;;;;;4.48;100.00;96339.44;5063504;28;20403;-73
2022/11/14 08:43:32;;;;;;;;;;;;;;;4.53;100.00;96346.69;5063418;28;20329;-73
2022/11/14 08:45:59;;;;;;;;;;;;;;;4.57;100.00;96347.13;5062888;28;19945;-73
2022/11/14 08:48:25;;;;;;;;;;;;;;;4.60;100.00;96346.75;5059582;28;19957;-74
2022/11/14 08:50:51;;;;;;;;;;;;;;;4.63;100.00;96342.00;5071119;28;19956;-74
2022/11/14 08:53:17;;;;;;;;;;;;;;;4.65;100.00;96339.25;5071209;28;20308;-74
2022/11/14 08:55:43;;;;;;;;;;;;;;;4.69;100.00;96343.09;5061364;28;20003;-74
2022/11/14 08:58:09;;;;;;;;;;;;;;;4.74;100.00;96337.34;5067135;28;19970;-75
2022/11/14 09:00:35;;;;;;;;;;;;;;;4.77;100.00;96329.19;5065319;28;20097;-74
2022/11/14 09:03:05;;;;;;;;;;;;;;;4.81;100.00;96325.25;5070199;28;20323;-74
2022/11/14 09:05:31;;;;;;;;;;;;;;;4.86;100.00;96322.88;5065677;28;19955;-74
2022/11/14 09:07:57;;;;;;;;;;;;;;;4.91;100.00;96327.50;5067103;28;19962;-75
2022/11/14 09:10:23;;;;;;;;;;;;;;;4.98;100.00;96326.59;5065414;28;20330;-74
2022/11/14 09:12:53;;;;;;;;;;;;;;;5.03;100.00;96320.84;5060064;28;19958;-76
2022/11/14 09:15:19;;;;;;;;;;;;;;;5.09;100.00;96322.69;5051276;28;19952;-75
2022/11/14 09:17:45;;;;;;;;;;;;;;;5.15;100.00;96324.56;5050130;28;19974;-74
2022/11/14 09:20:11;;;;;;;;;;;;;;;5.21;100.00;96321.22;5069164;28;19963;-75
2022/11/14 09:22:37;;;;;;;;;;;;;;;5.27;100.00;96317.88;5045004;28;20001;-74
2022/11/14 09:25:03;;;;;;;;;;;;;;;5.34;100.00;96317.91;5066539;28;19950;-74
2022/11/14 09:27:29;;;;;;;;;;;;;;;5.40;100.00;96313.78;5067058;28;20410;-74
2022/11/14 09:29:55;;;;;;;;;;;;;;;5.46;100.00;96320.81;5065419;28;20047;-75
2022/11/14 09:32:20;;;;;;;;;;;;;;;5.52;100.00;96324.44;5068773;28;19992;-74
2022/11/14 09:34:46;;;;;;;;;;;;;;;5.56;100.00;96329.06;5069628;28;20005;-74
2022/11/14 09:37:12;;;;;;;;;;;;;;;5.60;100.00;96332.91;5062552;28;19978;-74
2022/11/14 09:39:39;;;;;;;;;;;;;;;5.65;100.00;96332.38;5064557;28;20007;-74
2022/11/14 09:42:21;;;;;;;;;;;;;;;5.69;100.00;96334.41;5069099;28;19970;-74
2022/11/14 09:44:58;;;;;;;;;;;;;;;5.78;100.00;96340.25;5070346;28;19964;-74
2022/11/14 09:47:28;;;;;;;;;;;;;;;5.86;100.00;96334.09;5068914;28;20416;-74
2022/11/14 09:49:58;;;;;;;;;;;;;;;5.94;100.00;96338.34;5065481;28;20459;-74
2022/11/14 09:52:35;;;;;;;;;;;;;;;6.01;100.00;96329.63;5063469;28;19961;-74
2022/11/14 09:55:08;;;;;;;;;;;;;;;6.12;100.00;96330.88;5066496;28;20307;-75
2022/11/14 09:57:34;;;;;;;;;;;;;;;6.19;100.00;96325.69;5068070;28;19977;-74
2022/11/14 10:00:00;;;;;;;;;;;;;;;6.24;100.00;96334.53;5071957;28;19963;-75
2022/11/14 10:02:36;;;;;;;;;;;;;;;6.31;100.00;96339.78;5061030;28;20006;-74
2022/11/14 10:05:16;;;;;;;;;;;;;;;6.35;100.00;96337.59;5063295;28;19951;-74
2022/11/14 10:07:45;;;;;;;;;;;;;;;6.38;100.00;96329.38;5048604;28;19954;-74
2022/11/14 10:10:23;;;;;;;;;;;;;;;6.41;100.00;96334.22;5065134;28;19955;-75
2022/11/14 10:13:07;;;;;;;;;;;;;;;6.44;100.00;96333.81;5070233;28;19950;-74
2022/11/14 10:15:44;;;;;;;;;;;;;;;6.45;100.00;96335.44;5067006;28;19967;-75
2022/11/14 10:18:16;;;;;;;;;;;;;;;6.46;100.00;96329.22;5071781;28;19964;-75
2022/11/14 10:20:58;;;;;;;;;;;;;;;6.50;100.00;96335.66;5068559;28;19950;-74
2022/11/14 10:23:33;;;;;;;;;;;;;;;6.55;100.00;96332.47;5065475;28;19965;-74
2022/11/14 10:26:02;;;;;;;;;;;;;;;6.79;100.00;96331.16;5061940;28;19953;-75
2022/11/14 10:28:46;;;;;;;;;;;;;;;6.85;100.00;96325.94;5069908;28;19951;-75
2022/11/14 10:31:31;;;;;;;;;;;;;;;6.87;100.00;96323.16;5065860;28;19954;-75
2022/11/14 10:34:17;;;;;;;;;;;;;;;6.88;100.00;96330.75;5068363;28;20320;-76
2022/11/14 10:36:47;;;;;;;;;;;;;;;6.86;100.00;96324.94;5067515;28;19976;-75
2022/11/14 10:39:15;;;;;;;;;;;;;;;6.87;100.00;96323.94;5042560;28;19956;-74
2022/11/14 10:41:42;;;;;;;;;;;;;;;6.90;100.00;96326.16;5063142;28;19948;-74
2022/11/14 10:44:12;;;;;;;;;;;;;;;6.95;100.00;96330.78;5046487;28;19959;-74
2022/11/14 10:46:40;;;;;;;;;;;;;;;6.99;100.00;96326.78;5053713;28;19946;-74
2022/11/14 10:49:19;;;;;;;;;;;;;;;7.03;100.00;96325.38;5060811;28;19954;-76
2022/11/14 10:52:05;;;;;;;;;;;;;;;7.11;100.00;96330.41;5055138;28;20399;-74
2022/11/14 10:54:34;;;;;;;;;;;;;;;7.19;100.00;96324.19;5061199;28;20016;-74
2022/11/14 10:56:59;;;;;;;;;;;;;;;7.26;100.00;96332.81;5061792;28;19967;-74
2022/11/14 10:59:26;;;;;;;;;;;;;;;7.30;100.00;96320.97;5068228;28;19958;-74
2022/11/14 11:01:53;;;;;;;;;;;;;;;7.37;100.00;96321.00;5063314;28;19950;-74
2022/11/14 11:04:20;;;;;;;;;;;;;;;7.42;100.00;96315.97;5044108;28;19944;-74
2022/11/14 11:06:50;;;;;;;;;;;;;;;7.47;100.00;96312.75;5063343;28;20326;-74
2022/11/14 11:12:05;;;;;;;;;;;;;;;7.51;100.00;96306.94;5067563;28;20461;-74
2022/11/14 11:14:32;;;;;;;;;;;;;;;7.55;100.00;96312.56;5062492;28;20015;-74
2022/11/14 11:17:10;;;;;;;;;;;;;;;7.58;100.00;96314.78;5061165;28;19965;-74
2022/11/14 11:19:36;;;;;;;;;;;;;;;7.62;100.00;96312.56;5051610;28;20430;-74
2022/11/14 11:22:02;;;;;;;;;;;;;;;7.64;100.00;96315.75;5064277;28;19953;-74
2022/11/14 11:24:29;;;;;;;;;;;;;;;7.68;100.00;96314.34;5065240;28;19948;-74
2022/11/14 11:27:12;;;;;;;;;;;;;;;7.70;100.00;96310.53;5063808;28;19957;-74
2022/11/14 11:29:37;;;;;;;;;;;;;;;7.73;100.00;96312.75;5064903;28;19948;-74
2022/11/14 11:32:04;;;;;;;;;;;;;;;7.76;100.00;96308.94;5063337;28;19961;-74
2022/11/14 11:34:31;;;;;;;;;;;;;;;7.79;100.00;96313.75;5066349;28;19964;-74
2022/11/14 11:37:17;;;;;;;;;;;;;;;7.83;100.00;96304.53;5060561;28;19964;-74
2022/11/14 11:39:51;;;;;;;;;;;;;;;7.88;100.00;96306.50;5063141;28;19966;-74
2022/11/14 11:42:20;;;;;;;;;;;;;;;7.92;100.00;96303.28;5050549;28;19971;-74
2022/11/14 11:44:50;;;;;;;;;;;;;;;7.98;100.00;96300.84;5063184;28;19941;-74
2022/11/14 11:47:17;;;;;;;;;;;;;;;8.00;100.00;96307.50;5067003;28;19957;-74
2022/11/14 11:49:43;;;;;;;;;;;;;;;8.05;100.00;96306.88;5057886;28;19954;-75
2022/11/14 11:52:31;;;;;;;;;;;;;;;8.10;100.00;96301.81;5061976;28;20060;-74
2022/11/14 11:55:01;;;;;;;;;;;;;;;8.14;100.00;96303.03;5067922;28;19946;-74
2022/11/14 11:57:32;;;;;;;;;;;;;;;8.21;100.00;96293.38;5063380;28;19967;-75
2022/11/14 12:00:02;;;;;;;;;;;;;;;8.28;100.00;96288.91;5061628;28;20434;-75
2022/11/14 12:02:29;;;;;;;;;;;;;;;8.39;100.00;96294.50;5061399;28;19957;-74
2022/11/14 12:04:55;;;;;;;;;;;;;;;8.47;100.00;96289.06;5061328;28;19952;-74
2022/11/14 12:07:30;;;;;;;;;;;;;;;8.58;100.00;96285.78;5063566;28;19959;-74
2022/11/14 12:09:57;;;;;;;;;;;;;;;8.71;100.00;96285.75;5057710;28;19981;-74
2022/11/14 12:12:32;;;;;;;;;;;;;;;8.83;100.00;96285.06;5064982;28;19969;-74
2022/11/14 12:15:03;;;;;;;;;;;;;;;8.99;100.00;96287.19;5068739;28;19959;-74
2022/11/14 12:17:44;;;;;;;;;;;;;;;9.13;100.00;96286.06;5046472;28;20341;-74
2022/11/14 12:20:28;;;;;;;;;;;;;;;9.22;100.00;96283.19;5060244;28;19950;-75
2022/11/14 12:23:12;;;;;;;;;;;;;;;9.31;100.00;96276.69;5063325;28;19972;-75
2022/11/14 12:25:41;;;;;;;;;;;;;;;9.49;100.00;96279.34;5046374;28;20426;-74
2022/11/14 12:28:25;;;;;;;;;;;;;;;9.72;100.00;96278.75;5057158;28;19959;-74
2022/11/14 12:30:55;;;;;;;;;;;;;;;9.99;100.00;96272.44;5042901;28;19947;-74
2022/11/14 12:33:20;;;;;;;;;;;;;;;10.21;100.00;96268.34;5061234;28;20428;-75
2022/11/14 12:35:50;;;;;;;;;;;;;;;10.40;100.00;96274.41;5065176;28;19946;-75
2022/11/14 12:38:19;;;;;;;;;;;;;;;10.55;100.00;96266.16;5059794;28;19974;-74
2022/11/14 12:40:53;;;;;;;;;;;;;;;10.71;100.00;96267.38;5058411;28;19954;-74
2022/11/14 12:43:33;;;;;;;;;;;;;;;10.78;96.79;96254.94;5045659;28;19963;-73
2022/11/14 12:46:00;;;;;;;;;;;;;;;10.83;97.32;96264.75;5063980;28;19946;-73
2022/11/14 12:48:27;;;;;;;;;;;;;;;10.94;97.99;96262.19;5061726;28;20323;-74
2022/11/14 12:50:54;;;;;;;;;;;;;;;11.04;96.18;96250.31;5064398;28;19947;-73